Time;durP1;ratioP1;P1;durP2;ratioP2;P2;SDS_P1;SDS_P2;PMS_P1;PMS_P2;Temp;Humidity;BMP_temperature;BMP_pressure;BME280_temperature;BME280_humidity;BME280_pressure;Samples;Min_cycle;Max_cycle;Signal;HPM_P1;HPM_P2
2022/04/17 00:01:30;;;;;;;7.22;4.57;;;;;;;15.77;52.29;102858.13;5057572;28;20032;-53
2022/04/17 00:03:55;;;;;;;9.32;5.50;;;;;;;15.76;52.41;102853.78;5054542;28;20131;-55
2022/04/17 00:06:21;;;;;;;7.32;4.82;;;;;;;15.76;52.34;102856.38;5057237;28;20020;-56
2022/04/17 00:08:46;;;;;;;7.75;4.75;;;;;;;15.77;52.29;102855.53;5054547;28;20028;-56
2022/04/17 00:11:12;;;;;;;8.27;4.72;;;;;;;15.75;52.10;102849.41;5057667;28;20012;-56
2022/04/17 00:13:37;;;;;;;9.05;5.50;;;;;;;15.75;52.12;102857.22;5055335;28;20068;-56
2022/04/17 00:16:03;;;;;;;8.23;5.15;;;;;;;15.75;52.21;102849.41;5057470;28;20033;-56
2022/04/17 00:18:28;;;;;;;7.75;4.72;;;;;;;15.73;52.47;102851.06;5056175;28;20116;-55
2022/04/17 00:20:53;;;;;;;7.43;4.95;;;;;;;15.73;52.38;102845.84;5054534;28;20020;-55
2022/04/17 00:23:19;;;;;;;8.45;5.22;;;;;;;15.73;52.35;102851.06;5053903;28;20503;-56
2022/04/17 00:25:44;;;;;;;7.85;5.13;;;;;;;15.74;52.01;102858.03;5056374;28;20036;-56
2022/04/17 00:28:10;;;;;;;9.65;5.65;;;;;;;15.73;51.65;102861.44;5056321;28;20384;-55
2022/04/17 00:30:35;;;;;;;8.57;5.63;;;;;;;15.72;51.92;102854.47;5058507;28;20040;-53
2022/04/17 00:33:01;;;;;;;8.88;5.22;;;;;;;15.72;51.88;102857.06;5054924;28;20052;-55
2022/04/17 00:35:26;;;;;;;9.10;5.88;;;;;;;15.72;51.92;102849.25;5055672;28;20440;-55
2022/04/17 00:37:52;;;;;;;9.00;5.60;;;;;;;15.73;51.75;102847.56;5056797;28;20054;-56
2022/04/17 00:40:17;;;;;;;9.98;5.90;;;;;;;15.71;50.96;102850.13;5056431;28;20523;-56
2022/04/17 00:42:42;;;;;;;9.13;4.90;;;;;;;15.71;51.52;102852.72;5057523;28;20020;-55
2022/04/17 00:45:09;;;;;;;9.52;5.82;;;;;;;15.71;51.23;102852.72;5055451;28;20032;-56
2022/04/17 00:47:35;;;;;;;11.35;6.47;;;;;;;15.70;51.14;102844.84;5057430;28;20055;-56
2022/04/17 00:50:02;;;;;;;10.20;6.35;;;;;;;15.69;51.15;102854.34;5057292;28;20091;-56
2022/04/17 00:52:28;;;;;;;10.93;6.30;;;;;;;15.67;51.48;102840.41;5055034;28;20029;-55
2022/04/17 00:54:54;;;;;;;11.50;7.22;;;;;;;15.68;51.10;102847.38;5055399;28;20428;-55
2022/04/17 00:57:22;;;;;;;12.27;6.35;;;;;;;15.67;51.10;102845.59;5055718;28;20045;-55
2022/04/17 00:59:49;;;;;;;10.00;6.18;;;;;;;15.67;51.15;102835.19;5056117;28;20028;-55
2022/04/17 01:02:15;;;;;;;11.70;7.00;;;;;;;15.66;50.31;102838.66;5055376;28;20070;-55
2022/04/17 01:04:40;;;;;;;8.90;5.75;;;;;;;15.66;50.91;102838.66;5058061;28;20047;-56
2022/04/17 01:07:06;;;;;;;9.50;6.07;;;;;;;15.66;51.18;102841.25;5053862;28;20021;-56
2022/04/17 01:09:33;;;;;;;9.90;5.90;;;;;;;15.66;51.23;102838.66;5054891;28;20349;-55
2022/04/17 01:11:58;;;;;;;9.95;5.90;;;;;;;15.66;51.40;102837.75;5053586;28;20028;-56
2022/04/17 01:14:26;;;;;;;10.98;6.75;;;;;;;15.63;50.65;102836.81;5056028;28;20076;-56
2022/04/17 01:16:52;;;;;;;9.63;6.57;;;;;;;15.63;50.40;102838.50;5056447;28;20108;-56
2022/04/17 01:19:18;;;;;;;11.77;6.88;;;;;;;15.64;49.84;102842.88;5060814;28;20111;-55
2022/04/17 01:21:46;;;;;;;11.98;6.97;;;;;;;15.64;50.63;102835.09;5058849;28;20420;-56
2022/04/17 01:26:57;;;;;;;9.98;6.00;;;;;;;15.62;50.49;102841.91;5062615;28;20044;-56
2022/04/17 01:29:38;;;;;;;11.07;6.55;;;;;;;15.63;50.38;102843.69;5052515;28;20453;-56
2022/04/17 01:32:09;;;;;;;10.52;6.80;;;;;;;15.62;49.57;102847.13;5055811;28;20013;-56
2022/04/17 01:34:36;;;;;;;11.15;7.53;;;;;;;15.60;49.17;102846.19;5053920;28;20012;-56
2022/04/17 01:37:02;;;;;;;9.50;6.23;;;;;;;15.63;50.48;102843.69;5054703;28;20036;-56
2022/04/17 01:39:28;;;;;;;10.95;7.25;;;;;;;15.61;50.03;102845.38;5055772;28;20280;-55
2022/04/17 01:41:55;;;;;;;11.37;7.10;;;;;;;15.62;50.24;102852.31;5055967;28;20099;-54
2022/04/17 01:44:22;;;;;;;10.93;6.60;;;;;;;15.60;49.22;102841.88;5052729;28;20410;-56
2022/04/17 01:46:48;;;;;;;8.85;6.53;;;;;;;15.61;49.72;102840.16;5053895;28;20459;-56
2022/04/17 01:49:15;;;;;;;11.38;6.75;;;;;;;15.60;50.07;102843.59;5054495;28;20465;-55
2022/04/17 01:51:42;;;;;;;10.60;6.80;;;;;;;15.58;50.17;102835.75;5053250;28;20028;-56
2022/04/17 01:54:09;;;;;;;10.50;6.80;;;;;;;15.59;49.62;102836.63;5052596;28;20282;-56
2022/04/17 01:56:36;;;;;;;;;;;;;;;15.70;50.06;102842.22;5055218;28;20025;-55
2022/04/17 01:59:03;;;;;;;10.05;6.55;;;;;;;15.59;49.11;102847.00;5054174;28;19912;-56
2022/04/17 02:01:28;;;;;;;10.57;6.93;;;;;;;15.59;48.94;102834.88;5053950;28;20020;-56
2022/04/17 02:03:53;;;;;;;10.27;6.45;;;;;;;15.55;49.06;102830.41;5053897;28;20282;-56
2022/04/17 02:06:19;;;;;;;12.32;6.80;;;;;;;15.57;48.86;102833.06;5054866;28;20433;-56
2022/04/17 02:08:44;;;;;;;10.75;6.90;;;;;;;15.56;49.52;102828.69;5055027;28;20025;-56
2022/04/17 02:11:11;;;;;;;11.80;6.85;;;;;;;15.55;49.12;102830.41;5053795;28;20009;-57
2022/04/17 02:13:36;;;;;;;10.35;6.70;;;;;;;15.55;49.39;102830.41;5055201;28;20052;-55
2022/04/17 02:16:06;;;;;;;11.07;7.03;;;;;;;15.53;48.16;102836.34;5055204;28;20449;-56
2022/04/17 02:18:32;;;;;;;10.07;6.53;;;;;;;15.54;49.22;102833.81;5035443;28;20012;-55
2022/04/17 02:20:57;;;;;;;11.93;7.32;;;;;;;15.53;48.63;102824.28;5054168;28;20461;-56
2022/04/17 02:23:22;;;;;;;11.65;7.15;;;;;;;15.54;49.10;102827.75;5055475;28;20028;-56
2022/04/17 02:25:48;;;;;;;10.77;7.18;;;;;;;15.52;48.46;102830.28;5052902;28;20016;-57
2022/04/17 02:28:14;;;;;;;9.43;6.85;;;;;;;15.51;48.11;102823.31;5054579;28;20024;-55
2022/04/17 02:30:40;;;;;;;10.50;6.68;;;;;;;15.52;48.62;102818.97;5055103;28;20051;-56
2022/04/17 02:33:05;;;;;;;10.15;6.43;;;;;;;15.50;48.54;102821.53;5052919;28;20020;-56
2022/04/17 02:35:31;;;;;;;12.45;7.18;;;;;;;15.51;48.31;102823.31;5053286;28;20013;-56
2022/04/17 02:37:56;;;;;;;10.77;6.68;;;;;;;15.51;48.87;102818.09;5053725;28;21138;-55
2022/04/17 02:40:21;;;;;;;12.32;6.55;;;;;;;15.50;48.10;102816.31;5054430;28;20036;-54
2022/04/17 02:42:48;;;;;;;11.13;6.53;;;;;;;15.50;48.39;102818.06;5056320;28;20074;-56
2022/04/17 02:45:13;;;;;;;10.80;6.00;;;;;;;15.48;48.56;102816.28;5053538;28;20035;-55
2022/04/17 02:47:46;;;;;;;10.80;6.80;;;;;;;15.50;48.28;102815.44;5055526;28;20546;-57
2022/04/17 02:50:14;;;;;;;9.25;5.97;;;;;;;15.48;48.73;102818.00;5054189;28;20013;-54
2022/04/17 02:52:40;;;;;;;10.52;6.85;;;;;;;15.48;48.32;102818.00;5054985;28;20361;-56
2022/04/17 02:55:06;;;;;;;9.40;6.10;;;;;;;15.48;48.34;102820.59;5055857;28;20020;-56
2022/04/17 02:57:31;;;;;;;10.52;6.30;;;;;;;15.47;48.33;102813.63;5054033;28;20032;-55
2022/04/17 02:59:57;;;;;;;8.82;5.82;;;;;;;15.46;48.03;102815.31;5055373;28;20087;-56
2022/04/17 03:07:53;;;;;;;11.35;6.40;;;;;;;15.45;47.43;102808.38;5053976;28;20154;-56
2022/04/17 03:10:19;;;;;;;11.25;6.30;;;;;;;15.44;47.35;102808.28;5052533;28;20028;-53
2022/04/17 03:12:44;;;;;;;9.95;6.00;;;;;;;15.45;47.80;102803.16;5053455;28;20013;-56
2022/04/17 03:15:10;;;;;;;9.20;5.97;;;;;;;15.45;47.92;102804.84;5030578;28;20048;-57
2022/04/17 03:17:37;;;;;;;9.23;5.85;;;;;;;15.44;47.73;102803.97;5035258;28;20029;-56
2022/04/17 03:20:03;;;;;;;11.45;6.03;;;;;;;15.44;47.77;102803.97;5033207;28;20036;-55
2022/04/17 03:22:28;;;;;;;13.27;6.47;;;;;;;15.43;47.61;102794.41;5033697;28;20025;-56
2022/04/17 03:24:54;;;;;;;9.38;6.32;;;;;;;15.44;47.64;102792.69;5032737;28;20078;-55
2022/04/17 03:27:19;;;;;;;9.80;5.88;;;;;;;15.43;47.60;102794.41;5033113;28;20037;-57
2022/04/17 03:29:45;;;;;;;9.20;6.05;;;;;;;15.42;47.25;102795.22;5032548;28;20037;-55
2022/04/17 03:32:10;;;;;;;8.07;5.65;;;;;;;15.41;47.24;102796.03;5033236;28;20029;-56
2022/04/17 03:34:36;;;;;;;9.27;5.60;;;;;;;15.41;47.22;102795.16;5032978;28;20025;-56
2022/04/17 03:37:02;;;;;;;8.82;6.00;;;;;;;15.40;46.72;102791.69;5032847;28;20430;-55
2022/04/17 03:39:27;;;;;;;8.68;6.03;;;;;;;15.39;46.88;102789.00;5032818;28;20033;-54
2022/04/17 03:41:53;;;;;;;8.48;5.40;;;;;;;15.38;46.73;102785.53;5031552;28;20343;-57
2022/04/17 03:44:19;;;;;;;7.93;5.60;;;;;;;15.40;47.21;102783.91;5032663;28;20047;-56
2022/04/17 03:46:45;;;;;;;7.45;4.88;;;;;;;15.39;47.08;102783.81;5032139;28;20021;-55
2022/04/17 03:49:11;;;;;;;7.75;5.30;;;;;;;15.38;47.20;102785.53;5029474;28;20056;-54
2022/04/17 03:51:36;;;;;;;9.75;6.05;;;;;;;15.38;47.25;102782.94;5035054;28;20028;-54
2022/04/17 03:54:02;;;;;;;8.13;5.25;;;;;;;15.38;46.61;102789.84;5031567;28;20100;-54
2022/04/17 03:56:27;;;;;;;7.82;5.55;;;;;;;15.37;46.79;102788.06;5032465;28;20029;-54
2022/04/17 03:58:53;;;;;;;8.60;5.28;;;;;;;15.37;47.06;102788.94;5034069;28;20067;-55
2022/04/17 04:01:18;;;;;;;8.38;5.40;;;;;;;15.35;46.92;102785.44;5036426;28;20095;-55
2022/04/17 04:03:43;;;;;;;10.05;5.53;;;;;;;15.36;47.10;102778.50;5036121;28;20029;-54
2022/04/17 04:06:10;;;;;;;8.40;5.00;;;;;;;15.36;46.80;102781.09;5037860;28;20017;-56
2022/04/17 04:08:35;;;;;;;8.93;5.63;;;;;;;15.35;46.12;102774.13;5038345;28;20079;-55
2022/04/17 04:11:01;;;;;;;8.32;5.60;;;;;;;15.34;46.40;102778.44;5034061;28;20029;-56
2022/04/17 04:13:26;;;;;;;8.13;5.15;;;;;;;15.34;46.75;102773.25;5040287;28;20121;-56
2022/04/17 04:15:51;;;;;;;9.18;5.15;;;;;;;15.35;46.73;102774.13;5053200;28;20047;-55
2022/04/17 04:18:17;;;;;;;8.32;5.28;;;;;;;15.34;46.17;102769.75;5055754;28;20095;-56
2022/04/17 04:20:42;;;;;;;8.07;5.00;;;;;;;15.33;47.83;102760.22;5056150;28;20060;-53
2022/04/17 04:23:09;;;;;;;7.95;5.00;;;;;;;15.33;46.44;102760.22;5057138;28;20102;-56
2022/04/17 04:25:35;;;;;;;7.05;5.13;;;;;;;15.34;46.46;102761.94;5039468;28;20021;-56
2022/04/17 04:30:44;;;;;;;8.27;5.55;;;;;;;15.31;46.28;102757.53;5054880;28;20040;-57
2022/04/17 04:33:09;;;;;;;7.03;4.88;;;;;;;15.32;45.90;102748.91;5056651;28;20021;-56
2022/04/17 04:35:35;;;;;;;7.97;4.80;;;;;;;15.30;45.63;102755.78;5039863;28;20043;-56
2022/04/17 04:38:01;;;;;;;8.90;5.63;;;;;;;15.30;46.16;102758.38;5054370;28;20029;-53
2022/04/17 04:40:29;;;;;;;7.10;4.60;;;;;;;15.29;46.23;102757.47;5055487;28;20449;-56
2022/04/17 04:42:59;;;;;;;8.55;5.22;;;;;;;15.30;46.32;102766.16;5055180;28;20035;-56
2022/04/17 04:48:08;;;;;;;7.68;4.90;;;;;;;15.29;45.75;102756.59;5056075;28;20107;-56
2022/04/17 04:50:34;;;;;;;7.72;4.88;;;;;;;15.29;46.04;102754.00;5056943;28;20042;-55
2022/04/17 04:52:59;;;;;;;6.45;4.55;;;;;;;15.28;45.70;102755.69;5055793;28;20080;-54
2022/04/17 04:55:24;;;;;;;7.03;4.97;;;;;;;15.27;45.38;102747.84;5055016;28;20435;-55
2022/04/17 04:57:50;;;;;;;7.47;4.82;;;;;;;15.28;45.99;102752.22;5054740;28;20047;-56
2022/04/17 05:00:15;;;;;;;8.40;4.55;;;;;;;15.27;45.68;102750.44;5054404;28;20111;-52
2022/04/17 05:02:41;;;;;;;6.65;4.70;;;;;;;15.26;45.43;102748.66;5054335;28;20024;-56
2022/04/17 05:05:07;;;;;;;8.52;4.90;;;;;;;15.27;45.78;102755.63;5056715;28;20044;-54
2022/04/17 05:07:33;;;;;;;7.78;4.60;;;;;;;15.26;45.70;102748.66;5054761;28;20097;-55
2022/04/17 05:09:59;;;;;;;6.90;4.82;;;;;;;15.26;45.73;102751.25;5055349;28;20509;-56
2022/04/17 05:12:25;;;;;;;7.88;4.57;;;;;;;15.24;45.37;102755.50;5055308;28;20029;-53
2022/04/17 05:14:50;;;;;;;7.05;4.45;;;;;;;15.25;45.81;102755.56;5054307;28;20044;-56
2022/04/17 05:17:15;;;;;;;6.80;4.90;;;;;;;15.25;45.71;102754.69;5054809;28;20334;-55
2022/04/17 05:19:41;;;;;;;7.18;4.32;;;;;;;15.25;45.78;102762.50;5055826;28;20028;-53
2022/04/17 05:22:10;;;;;;;8.23;4.93;;;;;;;15.24;45.40;102760.72;5055841;28;20107;-56
2022/04/17 05:24:38;;;;;;;6.50;4.40;;;;;;;15.24;45.51;102768.50;5055402;28;20151;-54
2022/04/17 05:27:04;;;;;;;7.18;4.22;;;;;;;15.24;45.21;102763.31;5054916;28;20028;-56
2022/04/17 05:29:29;;;;;;;7.05;4.50;;;;;;;15.23;45.44;102769.31;5056026;28;20178;-54
2022/04/17 05:31:54;;;;;;;6.65;4.35;;;;;;;15.24;45.28;102763.31;5051480;28;20508;-55
2022/04/17 05:34:20;;;;;;;8.20;4.30;;;;;;;15.23;45.54;102758.94;5054088;28;20633;-55
2022/04/17 05:36:45;;;;;;;6.25;4.25;;;;;;;15.23;45.19;102766.72;5054144;28;20525;-55
2022/04/17 05:39:11;;;;;;;6.47;4.00;;;;;;;15.21;45.40;102760.56;5055652;28;20054;-55
2022/04/17 05:41:38;;;;;;;6.55;4.15;;;;;;;15.22;45.85;102764.94;5055783;28;20039;-55
2022/04/17 05:44:04;;;;;;;;;;;;;;;15.33;46.22;102761.09;5054938;28;20085;-57
2022/04/17 05:46:35;;;;;;;7.13;3.95;;;;;;;15.23;45.46;102759.81;5055782;28;19917;-54
2022/04/17 05:49:03;;;;;;;6.80;3.97;;;;;;;15.21;45.36;102752.78;5055606;28;20024;-55
2022/04/17 05:51:28;;;;;;;6.03;4.00;;;;;;;15.21;45.51;102757.97;5053760;28;20051;-56
2022/04/17 05:53:53;;;;;;;7.60;4.47;;;;;;;15.21;45.42;102758.88;5052555;28;20070;-53
2022/04/17 05:56:19;;;;;;;6.82;3.92;;;;;;;15.20;45.39;102754.50;5054530;28;20096;-56
2022/04/17 05:58:44;;;;;;;6.75;3.80;;;;;;;15.19;45.05;102762.22;5054660;28;20040;-56
2022/04/17 06:01:09;;;;;;;5.93;4.22;;;;;;;15.20;45.30;102754.50;5053007;28;20028;-54
2022/04/17 06:03:35;;;;;;;6.30;4.05;;;;;;;15.20;45.58;102753.63;5055827;28;20435;-55
2022/04/17 06:06:00;;;;;;;6.45;3.80;;;;;;;15.20;45.68;102758.81;5054182;28;20029;-55
2022/04/17 06:08:27;;;;;;;5.22;3.45;;;;;;;15.20;45.86;102758.81;5054021;28;20404;-55
2022/04/17 06:10:52;;;;;;;5.90;3.70;;;;;;;15.19;45.88;102762.22;5055106;28;20024;-56
2022/04/17 06:13:18;;;;;;;6.85;3.90;;;;;;;15.18;45.20;102756.13;5033951;28;20033;-52
2022/04/17 06:15:44;;;;;;;6.85;4.13;;;;;;;15.19;45.75;102757.91;5055039;28;20472;-54
2022/04/17 06:18:10;;;;;;;7.32;3.63;;;;;;;15.20;45.82;102764.00;5051884;28;20029;-55
2022/04/17 06:20:35;;;;;;;6.63;3.90;;;;;;;15.18;45.90;102760.44;5054083;28;20461;-56
2022/04/17 06:23:00;;;;;;;6.07;3.42;;;;;;;15.19;45.99;102757.91;5054192;28;20043;-54
2022/04/17 06:25:26;;;;;;;5.22;3.30;;;;;;;15.18;45.84;102757.84;5051601;28;20063;-55
2022/04/17 06:27:51;;;;;;;5.43;3.50;;;;;;;15.18;46.85;102752.66;5052391;28;20137;-54
2022/04/17 06:30:19;;;;;;;5.10;3.05;;;;;;;15.17;46.56;102753.47;5049627;28;20353;-56
2022/04/17 06:32:45;;;;;;;;;;;;;;;15.28;46.80;102753.09;5052157;28;20021;-56
2022/04/17 06:35:12;;;;;;;5.05;3.10;;;;;;;15.19;46.84;102755.31;5052424;28;19920;-56
2022/04/17 06:37:51;;;;;;;6.57;3.35;;;;;;;15.19;46.61;102749.25;5048407;28;20024;-54
2022/04/17 06:40:19;;;;;;;6.10;3.42;;;;;;;15.18;46.93;102750.06;5049216;28;20066;-56
2022/04/17 06:42:46;;;;;;;5.60;3.13;;;;;;;15.18;46.89;102750.06;5049369;28;20454;-55
2022/04/17 06:45:11;;;;;;;5.93;3.30;;;;;;;15.19;46.76;102754.44;5032099;28;20024;-54
2022/04/17 06:47:37;;;;;;;5.25;3.30;;;;;;;15.18;46.80;102755.25;5049957;28;20302;-54
2022/04/17 06:50:03;;;;;;;8.43;3.60;;;;;;;15.17;47.00;102751.78;5053402;28;20099;-56
2022/04/17 06:52:28;;;;;;;5.57;3.13;;;;;;;15.18;47.02;102750.06;5052294;28;20064;-54
2022/04/17 06:54:53;;;;;;;4.28;2.80;;;;;;;15.19;47.15;102746.66;5054526;28;20035;-55
2022/04/17 06:57:19;;;;;;;6.55;3.45;;;;;;;15.19;47.43;102749.25;5052217;28;20050;-56
2022/04/17 06:59:44;;;;;;;4.97;2.92;;;;;;;15.20;47.73;102743.22;5055390;28;20378;-55
2022/04/17 07:02:09;;;;;;;6.97;3.00;;;;;;;15.20;47.60;102754.50;5052953;28;20050;-54
2022/04/17 07:04:35;;;;;;;6.18;3.33;;;;;;;15.21;47.62;102752.78;5054580;28;20352;-55
2022/04/17 07:07:00;;;;;;;5.28;2.92;;;;;;;15.19;47.72;102746.66;5053033;28;20025;-53
2022/04/17 07:09:25;;;;;;;5.72;3.20;;;;;;;15.20;48.01;102753.63;5054011;28;20056;-53
2022/04/17 07:11:51;;;;;;;5.20;3.40;;;;;;;15.20;47.75;102748.44;5053773;28;20085;-55
2022/04/17 07:14:16;;;;;;;4.72;3.13;;;;;;;15.20;47.47;102738.03;5053951;28;20105;-54
2022/04/17 07:16:43;;;;;;;4.60;3.20;;;;;;;15.19;47.75;102741.44;5050821;28;20098;-56
2022/04/17 07:19:08;;;;;;;6.13;3.85;;;;;;;15.19;47.66;102737.13;5051102;28;20066;-56
2022/04/17 07:21:34;;;;;;;7.07;3.50;;;;;;;15.21;47.79;102734.59;5050147;28;20025;-52
2022/04/17 07:23:59;;;;;;;7.18;3.70;;;;;;;15.21;47.68;102729.41;5052592;28;20103;-56
2022/04/17 07:26:24;;;;;;;5.88;3.55;;;;;;;15.22;47.33;102731.19;5050993;28;20032;-55
2022/04/17 07:28:50;;;;;;;7.60;3.75;;;;;;;15.22;47.56;102728.56;5052984;28;20029;-55
2022/04/17 07:31:15;;;;;;;6.18;3.63;;;;;;;15.21;47.60;102724.19;5053752;28;20040;-53
2022/04/17 07:33:40;;;;;;;6.78;3.65;;;;;;;15.21;47.52;102725.09;5053920;28;21828;-56
2022/04/17 07:36:06;;;;;;;6.25;3.33;;;;;;;15.21;47.61;102725.09;5038912;28;20028;-52
2022/04/17 07:38:31;;;;;;;7.88;3.15;;;;;;;15.21;47.43;102725.09;5056570;28;20033;-54
2022/04/17 07:40:57;;;;;;;6.28;3.45;;;;;;;15.20;47.36;102722.47;5054801;28;20802;-56
2022/04/17 07:43:22;;;;;;;5.80;3.60;;;;;;;15.20;47.42;102723.31;5054844;28;20450;-52
2022/04/17 07:45:48;;;;;;;5.18;3.25;;;;;;;15.20;47.39;102712.94;5055690;28;20129;-54
2022/04/17 07:48:13;;;;;;;6.60;3.47;;;;;;;15.20;47.53;102712.06;5058747;28;20029;-56
2022/04/17 07:50:38;;;;;;;5.80;3.22;;;;;;;15.21;47.48;102713.81;5057246;28;20012;-57
2022/04/17 07:53:04;;;;;;;6.30;3.38;;;;;;;15.20;47.32;102712.06;5058011;28;20029;-56
2022/04/17 07:55:29;;;;;;;6.85;3.40;;;;;;;15.20;47.18;102718.13;5054537;28;20016;-56
2022/04/17 07:58:22;;;;;;;6.22;3.60;;;;;;;15.18;47.38;102713.69;5058099;28;20029;-56
2022/04/17 08:00:57;;;;;;;5.60;3.38;;;;;;;15.19;47.33;102710.28;5056542;28;20480;-55
2022/04/17 08:03:46;;;;;;;5.82;3.35;;;;;;;15.19;47.32;102703.38;5055700;28;20445;-57
2022/04/17 08:06:15;;;;;;;4.97;3.33;;;;;;;15.19;47.48;102712.88;5056839;28;20145;-55
2022/04/17 08:08:40;;;;;;;6.63;3.40;;;;;;;15.19;47.30;102710.28;5054037;28;20027;-55
2022/04/17 08:11:07;;;;;;;6.38;3.50;;;;;;;15.18;47.41;102708.50;5055988;28;20024;-57
2022/04/17 08:13:34;;;;;;;8.13;3.30;;;;;;;15.17;47.40;102699.84;5056813;28;20112;-53
2022/04/17 08:16:00;;;;;;;5.13;3.42;;;;;;;15.19;47.53;102705.09;5054271;28;20025;-56
2022/04/17 08:18:26;;;;;;;5.13;3.30;;;;;;;15.18;47.61;102703.31;5057228;28;20454;-56
2022/04/17 08:20:51;;;;;;;5.63;3.47;;;;;;;15.19;47.47;102699.91;5052751;28;20524;-56
2022/04/17 08:23:17;;;;;;;4.35;2.63;;;;;;;15.18;47.39;102698.13;5056067;28;20074;-54
2022/04/17 08:25:43;;;;;;;6.28;3.10;;;;;;;15.18;47.33;102703.31;5051480;28;20048;-53
2022/04/17 08:28:09;;;;;;;4.75;3.42;;;;;;;15.18;47.34;102704.19;5055891;28;20341;-55
2022/04/17 08:30:35;;;;;;;5.15;3.05;;;;;;;15.18;47.31;102698.13;5055508;28;20437;-55
2022/04/17 08:33:04;;;;;;;6.03;3.20;;;;;;;15.19;47.47;102699.91;5045715;28;20032;-56
2022/04/17 08:35:30;;;;;;;5.85;3.20;;;;;;;15.19;47.30;102699.91;5046912;28;20144;-55
2022/04/17 08:38:00;;;;;;;5.47;3.30;;;;;;;15.18;47.46;102699.00;5065106;28;20428;-54
2022/04/17 08:40:26;;;;;;;7.45;3.00;;;;;;;15.18;47.54;102692.91;5064037;28;20036;-56
2022/04/17 08:42:53;;;;;;;7.85;3.45;;;;;;;15.18;47.61;102693.78;5063934;28;21936;-56
2022/04/17 08:45:18;;;;;;;5.38;3.20;;;;;;;15.19;47.41;102692.97;5061096;28;20079;-53
2022/04/17 08:47:44;;;;;;;4.25;2.97;;;;;;;15.20;47.46;102693.88;5055293;28;20432;-55
2022/04/17 08:50:20;;;;;;;5.15;2.75;;;;;;;15.20;47.45;102696.47;5059815;28;20020;-55
2022/04/17 08:52:55;;;;;;;5.63;3.20;;;;;;;15.21;47.58;102690.44;5063397;28;20013;-55
2022/04/17 08:55:21;;;;;;;6.35;2.97;;;;;;;15.18;47.25;102690.31;5061755;28;20445;-54
2022/04/17 08:57:47;;;;;;;7.45;3.00;;;;;;;15.19;47.53;102684.31;5065316;28;20024;-56
2022/04/17 09:00:17;;;;;;;5.82;2.95;;;;;;;15.18;47.58;102687.72;5063655;28;20028;-56
2022/04/17 09:02:42;;;;;;;5.28;2.58;;;;;;;15.20;47.67;102686.09;5063785;28;20036;-56
2022/04/17 09:05:10;;;;;;;5.53;3.13;;;;;;;15.19;47.62;102692.09;5066484;28;20404;-51
2022/04/17 09:07:50;;;;;;;5.10;3.03;;;;;;;15.22;47.70;102684.41;5047734;28;20044;-52
2022/04/17 09:10:31;;;;;;;4.45;2.60;;;;;;;15.21;47.76;102677.44;5066933;28;20035;-51
2022/04/17 09:13:01;;;;;;;5.88;3.20;;;;;;;15.19;47.78;102673.91;5069895;28;20039;-53
2022/04/17 09:15:30;;;;;;;5.55;2.92;;;;;;;15.19;47.78;102673.91;5051944;28;20206;-53
2022/04/17 09:17:55;;;;;;;7.28;2.95;;;;;;;15.20;47.87;102680.91;5068737;28;20076;-52
2022/04/17 09:20:24;;;;;;;7.43;2.95;;;;;;;15.19;47.87;102676.53;5069977;28;20040;-51
2022/04/17 09:22:54;;;;;;;8.70;3.15;;;;;;;15.19;47.68;102669.59;5070484;28;20082;-52
2022/04/17 09:25:24;;;;;;;6.13;2.90;;;;;;;15.20;47.64;102667.91;5062924;28;20046;-50
2022/04/17 09:28:08;;;;;;;8.77;3.45;;;;;;;15.23;47.84;102657.63;5066697;28;20020;-49
2022/04/17 09:30:39;;;;;;;7.40;2.78;;;;;;;15.21;47.47;102656.66;5068635;28;20051;-49
2022/04/17 09:33:06;;;;;;;5.50;2.85;;;;;;;15.21;47.72;102667.06;5071222;28;20114;-49
2022/04/17 09:35:32;;;;;;;9.27;2.90;;;;;;;15.20;47.71;102653.19;5064882;28;20391;-48
2022/04/17 09:37:59;;;;;;;5.38;3.03;;;;;;;15.20;47.87;102654.94;5065787;28;20432;-50
2022/04/17 09:40:27;;;;;;;4.25;2.88;;;;;;;15.21;47.85;102651.47;5067999;28;20421;-49
2022/04/17 09:43:16;;;;;;;5.20;2.55;;;;;;;15.24;47.98;102652.50;5067783;28;20126;-53
2022/04/17 09:46:00;;;;;;;6.25;3.22;;;;;;;15.25;47.97;102651.66;5067096;28;20032;-48
2022/04/17 09:48:30;;;;;;;6.35;2.78;;;;;;;15.22;47.86;102648.06;5069989;28;20024;-50
2022/04/17 09:50:56;;;;;;;6.60;2.70;;;;;;;15.20;47.88;102645.41;5071722;28;20367;-48
2022/04/17 09:53:35;;;;;;;5.45;2.75;;;;;;;15.23;47.91;102631.66;5072704;28;20456;-48
2022/04/17 09:56:10;;;;;;;6.00;2.60;;;;;;;15.23;47.78;102639.44;5065106;28;20060;-48
2022/04/17 09:58:36;;;;;;;5.28;2.88;;;;;;;15.21;47.70;102625.50;5067322;28;20020;-48
2022/04/17 10:01:03;;;;;;;6.73;3.30;;;;;;;15.23;47.58;102623.88;5065391;28;20472;-48
2022/04/17 10:03:29;;;;;;;7.13;3.20;;;;;;;15.22;47.71;102611.69;5061702;28;20105;-48
2022/04/17 10:05:55;;;;;;;4.88;2.92;;;;;;;15.21;47.84;102609.91;5061066;28;20082;-53
2022/04/17 10:08:21;;;;;;;6.78;3.05;;;;;;;15.23;47.58;102603.09;5067892;28;20115;-48
2022/04/17 10:10:47;;;;;;;6.63;3.35;;;;;;;15.23;47.47;102608.28;5063534;28;20040;-48
2022/04/17 10:13:13;;;;;;;6.55;2.83;;;;;;;15.22;47.38;102606.50;5064816;28;20360;-48
2022/04/17 10:15:39;;;;;;;5.13;2.72;;;;;;;15.23;47.43;102597.88;5064528;28;20045;-48
2022/04/17 10:18:05;;;;;;;6.50;2.83;;;;;;;15.23;47.24;102592.69;5064148;28;20017;-49
2022/04/17 10:20:31;;;;;;;7.25;3.05;;;;;;;15.23;47.06;102583.19;5065790;28;20087;-48
2022/04/17 10:23:04;;;;;;;7.00;2.90;;;;;;;15.23;47.14;102590.09;5065165;28;20059;-48
2022/04/17 10:25:32;;;;;;;5.75;2.85;;;;;;;15.23;47.08;102577.97;5066319;28;20349;-48
2022/04/17 10:28:00;;;;;;;6.10;3.20;;;;;;;15.23;46.98;102569.31;5064567;28;21214;-49
2022/04/17 10:30:34;;;;;;;9.30;3.20;;;;;;;15.25;47.09;102567.69;5065673;28;20353;-48
2022/04/17 10:33:42;;;;;;;5.28;2.80;;;;;;;15.30;47.19;102564.41;5065999;28;20418;-49
2022/04/17 10:36:33;;;;;;;5.88;3.13;;;;;;;15.27;47.02;102551.31;5017011;28;20063;-51
2022/04/17 10:39:14;;;;;;;6.13;3.00;;;;;;;15.25;46.90;102545.16;5067091;28;20024;-49
2022/04/17 10:41:41;;;;;;;6.85;3.38;;;;;;;15.24;46.67;102542.53;5069912;28;20036;-48
2022/04/17 10:44:09;;;;;;;6.53;2.65;;;;;;;15.24;46.59;102546.00;5067952;28;20031;-48
2022/04/17 10:46:51;;;;;;;5.93;2.85;;;;;;;15.28;46.84;102539.22;5070083;28;20472;-50
2022/04/17 10:49:29;;;;;;;5.10;3.03;;;;;;;15.26;46.65;102535.66;5068062;28;20028;-50
2022/04/17 10:51:56;;;;;;;4.47;2.80;;;;;;;15.26;46.57;102535.66;5069406;28;20336;-48
2022/04/17 10:54:22;;;;;;;5.90;2.90;;;;;;;15.26;46.41;102530.47;5069915;28;20650;-52
2022/04/17 10:56:53;;;;;;;5.32;3.10;;;;;;;15.26;46.46;102531.38;5068328;28;20034;-48
2022/04/17 10:59:21;;;;;;;5.50;2.70;;;;;;;15.24;46.34;102521.75;5067671;28;20158;-48
2022/04/17 11:01:53;;;;;;;;;;;;;;;15.37;46.79;102523.94;5065831;28;20102;-52
2022/04/17 11:04:27;;;;;;;4.32;2.60;;;;;;;15.28;46.14;102518.44;5068056;28;19904;-48
2022/04/17 11:07:05;;;;;;;6.57;2.92;;;;;;;15.27;45.96;102516.66;5068506;28;20444;-50
2022/04/17 11:09:36;;;;;;;5.28;2.50;;;;;;;15.29;45.99;102512.41;5070096;28;20031;-50
2022/04/17 11:12:10;;;;;;;6.82;3.75;;;;;;;15.29;46.15;102509.81;5068212;28;20484;-48
2022/04/17 11:14:36;;;;;;;4.97;2.60;;;;;;;15.28;45.80;102508.03;5070283;28;20701;-50
2022/04/17 11:17:08;;;;;;;5.85;2.70;;;;;;;15.27;45.86;102509.75;5047129;28;20025;-49
2022/04/17 11:19:36;;;;;;;5.57;2.70;;;;;;;15.29;45.61;102502.00;5061820;28;20068;-49
2022/04/17 11:22:04;;;;;;;6.72;2.70;;;;;;;15.28;45.65;102493.31;5065779;28;20507;-50
2022/04/17 11:24:54;;;;;;;4.70;3.00;;;;;;;15.32;45.84;102496.91;5064262;28;20040;-53
2022/04/17 11:27:41;;;;;;;5.78;2.80;;;;;;;15.31;45.75;102493.44;5068773;28;20035;-48
2022/04/17 11:30:08;;;;;;;5.88;2.67;;;;;;;15.29;45.27;102487.31;5067559;28;20393;-49
2022/04/17 11:32:34;;;;;;;3.80;2.42;;;;;;;15.30;45.13;102480.41;5066708;28;20020;-48
2022/04/17 11:35:04;;;;;;;4.80;2.65;;;;;;;15.31;45.22;102476.97;5064500;28;20071;-49
2022/04/17 11:37:30;;;;;;;5.35;2.65;;;;;;;15.29;45.07;102476.91;5053222;28;20397;-48
2022/04/17 11:40:12;;;;;;;4.13;2.67;;;;;;;15.32;45.15;102468.34;5066288;28;20489;-51